Terminal Aerodrome Forecast
Issued by NWS

Home | Current Version | Previous Version | Text Only | Print | Product List | Glossary On
Versions: 1 2 3 4 5 6 7 8 9 10 11 12 13 14 15 16 17 18 19 20 21 22 23 24
000
FTUS46 KSEW 302320
TAFHQM
TAF
KHQM 302320Z 0100/0124 24013KT P6SM SCT012
      TEMPO 0101/0103 5SM BR BKN012
     FM010300 27010KT 5SM BR OVC007
     FM010600 30006KT 3SM BR OVC006
     FM011500 24005KT P6SM SCT015
     FM011800 27010KT P6SM FEW020=

USA.gov is the U.S. government's official web portal to all federal, state and local government web resources and services.